Time;durP1;ratioP1;P1;durP2;ratioP2;P2;SDS_P1;SDS_P2;PMS_P1;PMS_P2;Temp;Humidity;BMP_temperature;BMP_pressure;BME280_temperature;BME280_humidity;BME280_pressure;Samples;Min_cycle;Max_cycle;Signal;HPM_P1;HPM_P2
2021/01/03 00:02:11;;;;;;;1999.90;999.90;;;;;;;;;;5047935;28;20021;-71
2021/01/03 00:04:42;;;;;;;1999.90;999.90;;;;;;;;;;5050632;28;20400;-71
2021/01/03 00:07:08;;;;;;;1514.70;999.90;;;;;;;;;;5047582;28;20031;-72
2021/01/03 00:09:34;;;;;;;374.27;337.52;;;;;;;;;;5047818;28;20025;-70
2021/01/03 00:12:01;;;;;;;453.38;406.92;;;;;;;;;;5041319;28;20052;-70
2021/01/03 00:14:30;;;;;;;1993.57;999.90;;;;;;;;;;5046606;28;20478;-71
2021/01/03 00:16:58;;;;;;;354.50;318.38;;;;;;;;;;5049428;28;20040;-72
2021/01/03 00:19:24;;;;;;;637.92;571.63;;;;;;;;;;5050533;28;20162;-71
2021/01/03 00:21:50;;;;;;;1999.90;999.90;;;;;;;;;;5042399;28;20167;-71
2021/01/03 00:24:17;;;;;;;366.37;329.67;;;;;;;;;;5035324;28;20048;-73
2021/01/03 00:26:43;;;;;;;383.40;346.40;;;;;;;;;;5041953;28;20029;-72
2021/01/03 00:29:09;;;;;;;1985.57;999.90;;;;;;;;;;5050476;28;20033;-72
2021/01/03 00:31:41;;;;;;;421.92;377.67;;;;;;;;;;5048198;28;20025;-71
2021/01/03 00:34:07;;;;;;;1999.90;999.90;;;;;;;;;;5042766;28;20036;-70
2021/01/03 00:36:33;;;;;;;1504.22;999.90;;;;;;;;;;5052310;28;20037;-70
2021/01/03 00:38:59;;;;;;;1999.90;999.90;;;;;;;;;;5048838;28;20037;-73
2021/01/03 00:41:25;;;;;;;1999.90;999.90;;;;;;;;;;5051398;28;20029;-71
2021/01/03 00:43:51;;;;;;;1496.10;999.90;;;;;;;;;;5044155;28;20044;-71
2021/01/03 00:46:17;;;;;;;1990.22;999.90;;;;;;;;;;5052223;28;20107;-68
2021/01/03 00:48:43;;;;;;;1051.07;936.22;;;;;;;;;;5043802;28;20120;-70
2021/01/03 00:51:09;;;;;;;382.55;345.55;;;;;;;;;;5051857;28;20033;-71
2021/01/03 00:53:35;;;;;;;1498.45;999.90;;;;;;;;;;5037727;28;20021;-71
2021/01/03 00:56:01;;;;;;;1129.53;982.20;;;;;;;;;;5050001;28;20029;-72
2021/01/03 00:58:27;;;;;;;372.80;336.08;;;;;;;;;;5037949;28;20101;-71
2021/01/03 01:00:53;;;;;;;346.48;310.65;;;;;;;;;;5049741;28;20048;-71
2021/01/03 01:03:21;;;;;;;1492.53;999.90;;;;;;;;;;5041487;28;20493;-72
2021/01/03 01:05:47;;;;;;;1494.68;999.90;;;;;;;;;;5046096;28;20040;-70
2021/01/03 01:08:13;;;;;;;1498.57;999.90;;;;;;;;;;5045705;28;20025;-71
2021/01/03 01:10:39;;;;;;;360.67;324.35;;;;;;;;;;5050287;28;20393;-70
2021/01/03 01:13:05;;;;;;;1491.95;999.90;;;;;;;;;;5040928;28;20025;-71
2021/01/03 01:15:31;;;;;;;345.50;309.77;;;;;;;;;;5051946;28;20033;-71
2021/01/03 01:18:01;;;;;;;405.50;363.88;;;;;;;;;;5045988;28;20112;-71
2021/01/03 01:20:28;;;;;;;1495.30;999.90;;;;;;;;;;5047034;28;20021;-69
2021/01/03 01:22:54;;;;;;;348.37;312.50;;;;;;;;;;5046430;28;20108;-71
2021/01/03 01:25:22;;;;;;;370.40;333.75;;;;;;;;;;5050231;28;20053;-71
2021/01/03 01:27:48;;;;;;;1999.90;999.90;;;;;;;;;;5044618;28;20025;-71
2021/01/03 01:30:14;;;;;;;1999.32;999.90;;;;;;;;;;5051032;28;20556;-69
2021/01/03 01:32:40;;;;;;;1039.68;925.75;;;;;;;;;;5045272;28;20125;-71
2021/01/03 01:35:08;;;;;;;389.63;352.33;;;;;;;;;;5051729;28;20385;-71
2021/01/03 01:37:34;;;;;;;379.55;342.58;;;;;;;;;;5042418;28;20025;-72
2021/01/03 01:40:00;;;;;;;346.08;310.25;;;;;;;;;;5050171;28;20043;-72
2021/01/03 01:42:26;;;;;;;370.60;333.95;;;;;;;;;;5044942;28;20025;-72
2021/01/03 01:44:52;;;;;;;1502.63;999.90;;;;;;;;;;5047793;28;20112;-69
2021/01/03 01:47:22;;;;;;;393.17;355.55;;;;;;;;;;5044885;28;20020;-70
2021/01/03 01:49:49;;;;;;;366.38;329.85;;;;;;;;;;5048029;28;20508;-69
2021/01/03 01:52:16;;;;;;;370.73;333.42;;;;;;;;;;5046965;28;20025;-70
2021/01/03 01:54:45;;;;;;;348.15;312.17;;;;;;;;;;5053948;28;20041;-70
2021/01/03 01:57:37;;;;;;;395.13;357.25;;;;;;;;;;5050423;28;20064;-71
2021/01/03 02:00:08;;;;;;;359.67;323.00;;;;;;;;;;5043290;28;20036;-71
2021/01/03 02:02:34;;;;;;;367.67;331.08;;;;;;;;;;5050019;28;20493;-71
2021/01/03 02:05:10;;;;;;;1999.90;999.90;;;;;;;;;;5052356;28;20045;-70
2021/01/03 02:07:59;;;;;;;372.33;335.50;;;;;;;;;;5051486;28;20078;-69
2021/01/03 02:10:37;;;;;;;343.25;307.60;;;;;;;;;;5055106;28;20075;-70
2021/01/03 02:13:22;;;;;;;591.42;531.03;;;;;;;;;;5044182;28;20090;-71
2021/01/03 02:15:49;;;;;;;391.73;354.08;;;;;;;;;;5054517;28;20551;-69
2021/01/03 02:18:16;;;;;;;1494.40;999.90;;;;;;;;;;5048643;28;20397;-71
2021/01/03 02:21:00;;;;;;;1999.90;999.90;;;;;;;;;;5045209;28;20501;-70
2021/01/03 02:23:35;;;;;;;939.15;837.33;;;;;;;;;;5048011;28;20112;-69
2021/01/03 02:26:02;;;;;;;357.67;321.00;;;;;;;;;;5048137;28;20493;-70
2021/01/03 02:28:30;;;;;;;1411.03;999.90;;;;;;;;;;5042945;28;20025;-69
2021/01/03 02:30:57;;;;;;;384.70;347.35;;;;;;;;;;5050562;28;20033;-68
2021/01/03 02:33:31;;;;;;;368.60;331.95;;;;;;;;;;5050345;28;20546;-69
2021/01/03 02:36:05;;;;;;;1999.90;999.90;;;;;;;;;;5053772;28;20033;-69
2021/01/03 02:38:34;;;;;;;824.47;734.00;;;;;;;;;;5034468;28;20033;-68
2021/01/03 02:41:00;;;;;;;732.58;653.55;;;;;;;;;;5034657;28;20025;-68
2021/01/03 02:43:26;;;;;;;404.13;365.70;;;;;;;;;;5034079;28;20645;-69
2021/01/03 02:45:54;;;;;;;773.83;689.90;;;;;;;;;;5033975;28;23046;-69
2021/01/03 02:48:21;;;;;;;390.80;352.77;;;;;;;;;;5036034;28;20040;-69
2021/01/03 02:50:47;;;;;;;;;;;;;;;;;;5034237;28;20044;-70
2021/01/03 02:53:13;;;;;;;756.15;673.70;;;;;;;;;;5034150;28;19912;-69
2021/01/03 02:55:39;;;;;;;1527.25;999.90;;;;;;;;;;5033060;28;20033;-70
2021/01/03 02:58:05;;;;;;;1501.47;999.90;;;;;;;;;;5032756;28;20041;-70
2021/01/03 03:00:33;;;;;;;1498.82;999.90;;;;;;;;;;5034022;28;20029;-69
2021/01/03 03:02:59;;;;;;;356.48;320.02;;;;;;;;;;5033570;28;20048;-69
2021/01/03 03:05:26;;;;;;;360.52;323.92;;;;;;;;;;5034237;28;20090;-71
2021/01/03 03:07:52;;;;;;;1999.90;999.90;;;;;;;;;;5034692;28;20025;-71
2021/01/03 03:10:19;;;;;;;1999.90;999.90;;;;;;;;;;5034191;28;20461;-71
2021/01/03 03:12:52;;;;;;;396.30;357.73;;;;;;;;;;5035009;28;20048;-68
2021/01/03 03:15:19;;;;;;;364.08;326.92;;;;;;;;;;5033832;28;20641;-72
2021/01/03 03:17:45;;;;;;;377.57;340.03;;;;;;;;;;5033125;28;20056;-69
2021/01/03 03:20:11;;;;;;;377.42;339.90;;;;;;;;;;5034461;28;20279;-70
2021/01/03 03:22:38;;;;;;;385.30;347.17;;;;;;;;;;5033418;28;20454;-70
2021/01/03 03:25:05;;;;;;;366.90;329.77;;;;;;;;;;5032217;28;20471;-72
2021/01/03 03:27:31;;;;;;;397.08;358.50;;;;;;;;;;5033318;28;20029;-69
2021/01/03 03:29:57;;;;;;;1999.90;999.90;;;;;;;;;;5033920;28;20561;-71
2021/01/03 03:32:23;;;;;;;844.30;751.25;;;;;;;;;;5033799;28;20037;-72
2021/01/03 03:34:49;;;;;;;402.42;363.95;;;;;;;;;;5033645;28;20033;-70
2021/01/03 03:37:15;;;;;;;1999.90;999.90;;;;;;;;;;5033630;28;20025;-72
2021/01/03 03:39:41;;;;;;;1999.90;999.90;;;;;;;;;;5033842;28;20588;-72
2021/01/03 03:42:07;;;;;;;419.60;379.00;;;;;;;;;;5033688;28;20210;-70
2021/01/03 03:44:33;;;;;;;386.30;348.35;;;;;;;;;;5033064;28;20036;-70
2021/01/03 03:47:03;;;;;;;369.40;331.98;;;;;;;;;;5033279;28;20147;-70
2021/01/03 03:49:30;;;;;;;380.15;342.55;;;;;;;;;;5031162;28;20072;-70
2021/01/03 03:51:57;;;;;;;391.70;353.33;;;;;;;;;;5033646;28;20462;-72
2021/01/03 03:54:24;;;;;;;369.88;332.33;;;;;;;;;;5032027;28;20033;-70
2021/01/03 03:56:50;;;;;;;379.95;342.08;;;;;;;;;;5036592;28;20037;-71
2021/01/03 03:59:17;;;;;;;384.77;346.37;;;;;;;;;;5034170;28;20120;-73
2021/01/03 04:01:43;;;;;;;1998.13;999.90;;;;;;;;;;5033332;28;20544;-70
2021/01/03 04:04:09;;;;;;;1999.70;999.90;;;;;;;;;;5032885;28;20112;-70
2021/01/03 04:06:35;;;;;;;1999.90;999.90;;;;;;;;;;5033393;28;20033;-68
2021/01/03 04:09:01;;;;;;;891.75;791.10;;;;;;;;;;5033355;28;20033;-71
2021/01/03 04:11:27;;;;;;;354.05;317.13;;;;;;;;;;5033188;28;20024;-72
2021/01/03 04:13:53;;;;;;;1088.25;961.70;;;;;;;;;;5032883;28;20034;-69
2021/01/03 04:16:19;;;;;;;1999.90;999.90;;;;;;;;;;5032111;28;20043;-70
2021/01/03 04:18:45;;;;;;;744.50;662.67;;;;;;;;;;5032855;28;20037;-71
2021/01/03 04:21:12;;;;;;;395.73;357.05;;;;;;;;;;5032269;28;20055;-70
2021/01/03 04:23:38;;;;;;;359.73;322.63;;;;;;;;;;5033048;28;20032;-72
2021/01/03 04:26:04;;;;;;;1999.90;999.90;;;;;;;;;;5032081;28;20283;-72
2021/01/03 04:28:31;;;;;;;611.05;545.00;;;;;;;;;;5033616;28;20631;-71
2021/01/03 04:30:57;;;;;;;1999.90;999.90;;;;;;;;;;5031800;28;20037;-71
2021/01/03 04:33:23;;;;;;;1999.70;999.90;;;;;;;;;;5033153;28;20029;-72
2021/01/03 04:35:50;;;;;;;371.52;333.83;;;;;;;;;;5032668;28;20056;-71
2021/01/03 04:38:16;;;;;;;358.38;321.42;;;;;;;;;;5031343;28;20382;-72
2021/01/03 04:40:42;;;;;;;373.90;336.15;;;;;;;;;;5032498;28;20715;-71
2021/01/03 04:43:12;;;;;;;1999.90;999.90;;;;;;;;;;5030172;28;20033;-71
2021/01/03 04:45:40;;;;;;;390.38;351.73;;;;;;;;;;5031215;28;20911;-71
2021/01/03 04:48:08;;;;;;;1999.90;999.90;;;;;;;;;;5033370;28;20082;-72
2021/01/03 04:50:46;;;;;;;396.52;358.02;;;;;;;;;;5045733;28;20037;-68
2021/01/03 04:53:30;;;;;;;397.17;358.30;;;;;;;;;;5039077;28;20033;-70
2021/01/03 04:56:15;;;;;;;353.38;316.25;;;;;;;;;;5049030;28;20063;-69
2021/01/03 04:59:00;;;;;;;520.30;465.45;;;;;;;;;;5047674;28;20041;-70
2021/01/03 05:01:44;;;;;;;1999.90;999.90;;;;;;;;;;5049760;28;20029;-72
2021/01/03 05:04:25;;;;;;;1997.38;999.90;;;;;;;;;;5045960;28;20052;-70
2021/01/03 05:06:53;;;;;;;623.60;554.58;;;;;;;;;;5045961;28;20025;-72
2021/01/03 05:09:19;;;;;;;328.05;292.00;;;;;;;;;;5047148;28;20168;-69
2021/01/03 05:11:45;;;;;;;942.65;838.95;;;;;;;;;;5048857;28;20150;-69
2021/01/03 05:14:34;;;;;;;324.13;288.73;;;;;;;;;;5050979;28;20047;-68
2021/01/03 05:17:01;;;;;;;1993.68;999.90;;;;;;;;;;5042701;28;21014;-70
2021/01/03 05:19:27;;;;;;;1471.68;999.90;;;;;;;;;;5051359;28;20036;-69
2021/01/03 05:21:54;;;;;;;478.40;424.70;;;;;;;;;;5048887;28;20456;-69
2021/01/03 05:24:20;;;;;;;;;;;;;;;;;;5051537;28;20512;-69
2021/01/03 05:26:46;;;;;;;1500.90;999.90;;;;;;;;;;5046730;28;19909;-72
2021/01/03 05:29:21;;;;;;;362.83;325.92;;;;;;;;;;5051698;28;20037;-72
2021/01/03 05:31:57;;;;;;;1999.90;999.90;;;;;;;;;;5051793;28;20067;-73
2021/01/03 05:34:30;;;;;;;1449.78;999.90;;;;;;;;;;5053256;28;20033;-70
2021/01/03 05:37:01;;;;;;;361.92;325.08;;;;;;;;;;5052251;28;20412;-69
2021/01/03 05:39:32;;;;;;;1251.82;999.90;;;;;;;;;;5053545;28;20065;-72
2021/01/03 05:42:19;;;;;;;1999.90;999.90;;;;;;;;;;5044651;28;20033;-69
2021/01/03 05:44:48;;;;;;;388.42;349.98;;;;;;;;;;5050728;28;20037;-69
2021/01/03 05:47:23;;;;;;;1497.53;999.90;;;;;;;;;;5051891;28;20056;-70
2021/01/03 05:50:07;;;;;;;343.33;307.63;;;;;;;;;;5053152;28;20393;-70
2021/01/03 05:52:33;;;;;;;1990.00;999.90;;;;;;;;;;5050597;28;20096;-69
2021/01/03 05:55:04;;;;;;;391.45;353.15;;;;;;;;;;5053486;28;20072;-69
2021/01/03 05:57:30;;;;;;;1491.78;999.90;;;;;;;;;;5051806;28;20128;-69
2021/01/03 05:59:57;;;;;;;386.05;347.67;;;;;;;;;;5053250;28;20021;-69
2021/01/03 06:02:27;;;;;;;338.38;301.77;;;;;;;;;;5053119;28;20029;-69
2021/01/03 06:05:12;;;;;;;346.90;310.02;;;;;;;;;;5054065;28;20060;-68
2021/01/03 06:07:38;;;;;;;346.55;310.27;;;;;;;;;;5048992;28;20112;-69
2021/01/03 06:10:24;;;;;;;372.60;335.50;;;;;;;;;;5054411;28;20063;-68
2021/01/03 06:12:57;;;;;;;356.05;318.75;;;;;;;;;;5051392;28;20060;-69
2021/01/03 06:15:23;;;;;;;355.98;319.02;;;;;;;;;;5054056;28;20029;-69
2021/01/03 06:17:51;;;;;;;1999.90;999.90;;;;;;;;;;5052086;28;20478;-70
2021/01/03 06:20:23;;;;;;;1494.15;999.90;;;;;;;;;;5054033;28;20108;-70
2021/01/03 06:22:52;;;;;;;665.83;593.35;;;;;;;;;;5050881;28;20029;-72
2021/01/03 06:25:35;;;;;;;342.60;306.45;;;;;;;;;;5053844;28;20037;-69
2021/01/03 06:28:16;;;;;;;1072.63;949.92;;;;;;;;;;5051892;28;20051;-70
2021/01/03 06:30:46;;;;;;;1997.75;999.90;;;;;;;;;;5052672;28;20029;-69
2021/01/03 06:33:17;;;;;;;362.08;325.35;;;;;;;;;;5048954;28;20472;-70
2021/01/03 06:36:04;;;;;;;343.88;308.00;;;;;;;;;;5049723;28;20029;-68
2021/01/03 06:38:52;;;;;;;361.60;325.10;;;;;;;;;;5035706;28;20041;-69
2021/01/03 06:41:33;;;;;;;381.23;343.80;;;;;;;;;;5053407;28;20082;-69
2021/01/03 06:44:19;;;;;;;1999.90;999.90;;;;;;;;;;5049789;28;20033;-69
2021/01/03 06:46:57;;;;;;;1998.68;999.90;;;;;;;;;;5041727;28;20030;-73
2021/01/03 06:49:41;;;;;;;1988.50;999.90;;;;;;;;;;5050311;28;20036;-70
2021/01/03 06:52:07;;;;;;;1004.47;893.78;;;;;;;;;;5050829;28;20106;-69
2021/01/03 06:54:56;;;;;;;369.98;333.08;;;;;;;;;;5048777;28;20076;-69
2021/01/03 06:57:37;;;;;;;1100.63;969.45;;;;;;;;;;5036844;28;20029;-69
2021/01/03 07:00:08;;;;;;;1327.13;999.90;;;;;;;;;;5053161;28;20033;-70
2021/01/03 07:02:35;;;;;;;652.15;580.58;;;;;;;;;;5050802;28;20417;-71
2021/01/03 07:05:08;;;;;;;357.25;321.00;;;;;;;;;;5051883;28;20133;-71
2021/01/03 07:07:37;;;;;;;332.80;297.67;;;;;;;;;;5044792;28;20025;-68
2021/01/03 07:10:08;;;;;;;345.85;310.33;;;;;;;;;;5050660;28;20094;-69
2021/01/03 07:12:42;;;;;;;357.10;320.98;;;;;;;;;;5050489;28;20480;-69
2021/01/03 07:15:13;;;;;;;322.40;287.77;;;;;;;;;;5052831;28;20063;-70
2021/01/03 07:18:08;;;;;;;337.80;302.48;;;;;;;;;;5050357;28;20576;-70
2021/01/03 07:20:34;;;;;;;352.83;316.85;;;;;;;;;;5029118;28;20045;-69
2021/01/03 07:23:09;;;;;;;1493.68;999.90;;;;;;;;;;5051371;28;20428;-69
2021/01/03 07:25:43;;;;;;;1999.38;999.90;;;;;;;;;;5052231;28;20040;-72
2021/01/03 07:28:19;;;;;;;359.30;323.00;;;;;;;;;;5047772;28;20037;-69
2021/01/03 07:30:51;;;;;;;364.58;328.30;;;;;;;;;;5048078;28;20485;-73
2021/01/03 07:33:20;;;;;;;366.13;329.55;;;;;;;;;;5051097;28;20369;-72
2021/01/03 07:35:46;;;;;;;336.50;301.02;;;;;;;;;;5043946;28;20025;-71
2021/01/03 07:38:24;;;;;;;1997.97;999.90;;;;;;;;;;5049028;28;20029;-72
2021/01/03 07:41:16;;;;;;;1489.47;999.90;;;;;;;;;;5050708;28;20053;-70
2021/01/03 07:43:57;;;;;;;337.25;301.95;;;;;;;;;;5047062;28;20044;-71
2021/01/03 07:46:42;;;;;;;314.38;279.83;;;;;;;;;;5052108;28;20071;-71
2021/01/03 07:49:27;;;;;;;362.95;326.40;;;;;;;;;;5049364;28;20060;-72
2021/01/03 07:51:54;;;;;;;342.58;306.70;;;;;;;;;;5047649;28;20036;-71
2021/01/03 07:54:20;;;;;;;370.52;333.15;;;;;;;;;;5033546;28;20028;-71
2021/01/03 07:56:46;;;;;;;335.52;300.33;;;;;;;;;;5032293;28;20044;-71
2021/01/03 07:59:14;;;;;;;1999.53;999.90;;;;;;;;;;5031955;28;20032;-72
2021/01/03 08:01:40;;;;;;;;;;;;;;;;;;5032714;28;20025;-72
2021/01/03 08:04:26;;;;;;;394.98;345.92;;;;;;;;;;5032158;28;19932;-72
2021/01/03 08:07:02;;;;;;;339.85;304.30;;;;;;;;;;5032701;28;20017;-73
2021/01/03 08:09:28;;;;;;;1991.32;999.90;;;;;;;;;;5037675;28;20032;-70
2021/01/03 08:12:02;;;;;;;454.77;404.33;;;;;;;;;;5046274;28;20124;-71
2021/01/03 08:14:30;;;;;;;328.42;293.08;;;;;;;;;;5051289;28;20489;-71
2021/01/03 08:17:00;;;;;;;354.75;318.73;;;;;;;;;;5048957;28;20167;-69
2021/01/03 08:19:27;;;;;;;356.25;320.40;;;;;;;;;;5050895;28;20036;-70
2021/01/03 08:21:54;;;;;;;350.58;314.45;;;;;;;;;;5048082;28;20035;-72
2021/01/03 08:24:21;;;;;;;335.08;299.60;;;;;;;;;;5050738;28;20420;-69
2021/01/03 08:26:57;;;;;;;1048.35;934.10;;;;;;;;;;5048185;28;20025;-73
2021/01/03 08:29:42;;;;;;;1995.00;999.90;;;;;;;;;;5050175;28;20121;-68
2021/01/03 08:32:25;;;;;;;1997.13;999.90;;;;;;;;;;5047863;28;20108;-69
2021/01/03 08:34:57;;;;;;;1990.93;999.90;;;;;;;;;;5051942;28;20374;-71
2021/01/03 08:37:25;;;;;;;342.83;306.75;;;;;;;;;;5047336;28;20562;-71
2021/01/03 08:39:52;;;;;;;349.13;312.85;;;;;;;;;;5051060;28;20503;-71
2021/01/03 08:42:28;;;;;;;355.33;318.95;;;;;;;;;;5049186;28;20017;-70
2021/01/03 08:44:56;;;;;;;364.80;328.05;;;;;;;;;;5050389;28;20111;-70
2021/01/03 08:47:42;;;;;;;611.28;545.67;;;;;;;;;;5048250;28;20100;-71
2021/01/03 08:50:10;;;;;;;1266.57;999.90;;;;;;;;;;5051402;28;20052;-71
2021/01/03 08:52:36;;;;;;;383.20;345.45;;;;;;;;;;5040956;28;20033;-70
2021/01/03 08:55:08;;;;;;;356.85;320.10;;;;;;;;;;5049625;28;20075;-69
2021/01/03 08:57:34;;;;;;;314.90;279.80;;;;;;;;;;5044869;28;20029;-69
2021/01/03 09:00:00;;;;;;;719.67;641.13;;;;;;;;;;5051507;28;20029;-68
2021/01/03 09:02:28;;;;;;;1998.75;999.90;;;;;;;;;;5046848;28;20099;-69
2021/01/03 09:04:58;;;;;;;758.50;676.35;;;;;;;;;;5053841;28;20166;-69
2021/01/03 09:07:25;;;;;;;320.40;284.23;;;;;;;;;;5048187;28;20025;-69
2021/01/03 09:09:51;;;;;;;352.45;315.63;;;;;;;;;;5050376;28;20052;-69
2021/01/03 09:12:34;;;;;;;339.42;303.50;;;;;;;;;;5053097;28;20021;-69
2021/01/03 09:15:00;;;;;;;1989.38;999.90;;;;;;;;;;5052962;28;20029;-68
2021/01/03 09:17:34;;;;;;;327.60;291.65;;;;;;;;;;5051810;28;20021;-69
2021/01/03 09:20:19;;;;;;;317.15;278.05;;;;;;;;;;5053701;28;20033;-69
2021/01/03 09:22:47;;;;;;;344.10;308.13;;;;;;;;;;5046593;28;20538;-69
2021/01/03 09:25:13;;;;;;;340.85;304.60;;;;;;;;;;5053346;28;20033;-69
2021/01/03 09:27:40;;;;;;;318.40;280.67;;;;;;;;;;5052976;28;20021;-69
2021/01/03 09:30:18;;;;;;;339.15;303.00;;;;;;;;;;5052155;28;20032;-69
2021/01/03 09:32:46;;;;;;;320.73;285.60;;;;;;;;;;5050901;28;20021;-68
2021/01/03 09:35:12;;;;;;;;;;;;;;;;;;5055314;28;20090;-68
2021/01/03 09:37:39;;;;;;;796.28;710.88;;;;;;;;;;5050989;28;19909;-68
2021/01/03 09:40:05;;;;;;;;;;;;;;;;;;5055441;28;20033;-68
2021/01/03 09:42:37;;;;;;;324.60;288.35;;;;;;;;;;5053010;28;20413;-69
2021/01/03 09:45:03;;;;;;;342.60;306.50;;;;;;;;;;5050364;28;20043;-69
2021/01/03 09:47:37;;;;;;;349.35;313.08;;;;;;;;;;5052146;28;20021;-69
2021/01/03 09:50:12;;;;;;;580.95;518.63;;;;;;;;;;5050532;28;20033;-69
2021/01/03 09:52:47;;;;;;;347.08;310.70;;;;;;;;;;5047028;28;20025;-68
2021/01/03 09:55:19;;;;;;;343.80;307.23;;;;;;;;;;5049022;28;20133;-68
2021/01/03 09:58:05;;;;;;;393.52;355.20;;;;;;;;;;5046315;28;20037;-67
2021/01/03 10:00:53;;;;;;;339.17;302.83;;;;;;;;;;5050708;28;20074;-69
2021/01/03 10:03:22;;;;;;;365.50;328.17;;;;;;;;;;5046482;28;20025;-69
2021/01/03 10:05:49;;;;;;;1264.65;999.90;;;;;;;;;;5048931;28;20045;-70
2021/01/03 10:08:17;;;;;;;363.17;326.33;;;;;;;;;;5050727;28;20099;-69
2021/01/03 10:10:49;;;;;;;1994.90;999.90;;;;;;;;;;5066639;28;20581;-69
2021/01/03 10:13:15;;;;;;;344.05;307.38;;;;;;;;;;5049149;28;20029;-70
2021/01/03 10:15:42;;;;;;;1999.45;999.90;;;;;;;;;;5053180;28;20070;-70
2021/01/03 10:18:09;;;;;;;1494.30;999.90;;;;;;;;;;5049499;28;20386;-70
2021/01/03 10:20:38;;;;;;;380.05;342.40;;;;;;;;;;5051855;28;20048;-69
2021/01/03 10:23:05;;;;;;;340.45;304.23;;;;;;;;;;5050015;28;20048;-67
2021/01/03 10:25:31;;;;;;;354.83;318.00;;;;;;;;;;5051154;28;20041;-68
2021/01/03 10:28:01;;;;;;;373.50;336.10;;;;;;;;;;5049340;28;20039;-69
2021/01/03 10:30:27;;;;;;;348.75;312.33;;;;;;;;;;5048942;28;20029;-69
2021/01/03 10:32:53;;;;;;;354.35;318.10;;;;;;;;;;5050899;28;20043;-70
2021/01/03 10:35:19;;;;;;;353.45;316.67;;;;;;;;;;5050387;28;20032;-69
2021/01/03 10:37:45;;;;;;;352.20;315.67;;;;;;;;;;5050015;28;20061;-70
2021/01/03 10:40:12;;;;;;;375.33;337.52;;;;;;;;;;5051942;28;20024;-69
2021/01/03 10:42:38;;;;;;;344.00;307.25;;;;;;;;;;5050016;28;20512;-68
2021/01/03 10:45:04;;;;;;;349.02;312.58;;;;;;;;;;5051023;28;20128;-69
2021/01/03 10:47:30;;;;;;;1981.50;999.90;;;;;;;;;;5049782;28;20033;-68
2021/01/03 10:49:56;;;;;;;380.85;343.00;;;;;;;;;;5046443;28;20033;-69
2021/01/03 10:52:22;;;;;;;349.45;313.02;;;;;;;;;;5045755;28;20026;-69
2021/01/03 10:54:48;;;;;;;726.17;648.70;;;;;;;;;;5031344;28;593988;-69
2021/01/03 10:57:14;;;;;;;329.08;293.33;;;;;;;;;;5049449;28;20025;-69
2021/01/03 10:59:40;;;;;;;345.80;309.65;;;;;;;;;;5048846;28;20021;-68
2021/01/03 11:02:06;;;;;;;332.33;296.65;;;;;;;;;;5049593;28;20484;-69
2021/01/03 11:04:32;;;;;;;356.67;320.10;;;;;;;;;;5049554;28;20156;-69
2021/01/03 11:07:01;;;;;;;334.17;298.42;;;;;;;;;;5049148;28;20120;-69
2021/01/03 11:09:29;;;;;;;317.98;282.90;;;;;;;;;;5050370;28;20021;-70
2021/01/03 11:11:54;;;;;;;;;;;;;;;;;;5046850;28;20094;-69
2021/01/03 11:14:20;;;;;;;324.58;289.30;;;;;;;;;;5048671;28;19913;-69
2021/01/03 11:16:46;;;;;;;313.05;274.73;;;;;;;;;;5045185;28;20096;-68
2021/01/03 11:19:14;;;;;;;331.40;296.00;;;;;;;;;;5047851;28;20025;-67
2021/01/03 11:21:41;;;;;;;312.35;269.70;;;;;;;;;;5050327;28;20021;-68
2021/01/03 11:24:07;;;;;;;354.45;318.00;;;;;;;;;;5050280;28;20041;-67
2021/01/03 11:26:35;;;;;;;351.08;314.45;;;;;;;;;;5051824;28;20108;-68
2021/01/03 11:29:01;;;;;;;1969.60;999.90;;;;;;;;;;5049980;28;20043;-67
2021/01/03 11:31:46;;;;;;;1968.07;999.90;;;;;;;;;;5051302;28;20477;-66
2021/01/03 11:34:15;;;;;;;1478.38;999.90;;;;;;;;;;5050170;28;20032;-67
2021/01/03 11:36:45;;;;;;;341.55;305.23;;;;;;;;;;5045365;28;20734;-68
2021/01/03 11:39:11;;;;;;;340.17;304.02;;;;;;;;;;5051346;28;20082;-67
2021/01/03 11:41:37;;;;;;;329.13;293.60;;;;;;;;;;5050390;28;20444;-68
2021/01/03 11:44:03;;;;;;;343.00;307.13;;;;;;;;;;5046296;28;20086;-68
2021/01/03 11:46:29;;;;;;;1962.75;999.90;;;;;;;;;;5050875;28;20487;-67
2021/01/03 11:48:55;;;;;;;373.67;336.30;;;;;;;;;;5050932;28;20060;-67
2021/01/03 11:51:21;;;;;;;343.73;307.60;;;;;;;;;;5052639;28;20363;-69
2021/01/03 11:53:47;;;;;;;1251.47;999.90;;;;;;;;;;5050369;28;20033;-66
2021/01/03 11:56:20;;;;;;;1487.55;999.90;;;;;;;;;;5052380;28;20476;-67
2021/01/03 11:58:46;;;;;;;349.90;313.75;;;;;;;;;;5050999;28;20047;-69
2021/01/03 12:01:16;;;;;;;335.65;300.20;;;;;;;;;;5052308;28;20434;-67
2021/01/03 12:03:42;;;;;;;1485.05;999.90;;;;;;;;;;5050296;28;20043;-67
2021/01/03 12:06:08;;;;;;;356.00;319.92;;;;;;;;;;5052505;28;20462;-69
2021/01/03 12:08:34;;;;;;;361.00;324.33;;;;;;;;;;5050988;28;20032;-69
2021/01/03 12:11:00;;;;;;;476.90;426.52;;;;;;;;;;5049913;28;20033;-69
2021/01/03 12:13:26;;;;;;;329.67;294.48;;;;;;;;;;5045178;28;20028;-67
2021/01/03 12:15:52;;;;;;;339.98;304.67;;;;;;;;;;5039558;28;20025;-68
2021/01/03 12:18:18;;;;;;;322.35;287.25;;;;;;;;;;5048737;28;20033;-69
2021/01/03 12:20:44;;;;;;;306.63;268.45;;;;;;;;;;5045303;28;20025;-69
2021/01/03 12:23:10;;;;;;;327.17;292.20;;;;;;;;;;5050344;28;20159;-68
2021/01/03 12:25:36;;;;;;;358.52;322.33;;;;;;;;;;5051948;28;20040;-69
2021/01/03 12:28:02;;;;;;;314.48;280.10;;;;;;;;;;5050135;28;20388;-69
2021/01/03 12:30:28;;;;;;;349.98;313.95;;;;;;;;;;5052211;28;20032;-68
2021/01/03 12:32:54;;;;;;;347.10;311.42;;;;;;;;;;5050240;28;20021;-68
2021/01/03 12:35:20;;;;;;;316.15;281.65;;;;;;;;;;5052329;28;20040;-67
2021/01/03 12:37:46;;;;;;;323.95;289.15;;;;;;;;;;5049016;28;20028;-68
2021/01/03 12:40:13;;;;;;;332.50;297.52;;;;;;;;;;5050564;28;20465;-69
2021/01/03 12:42:39;;;;;;;311.63;274.25;;;;;;;;;;5048177;28;20104;-68
2021/01/03 12:45:07;;;;;;;337.90;302.42;;;;;;;;;;5049989;28;20087;-68
2021/01/03 12:47:33;;;;;;;340.15;304.80;;;;;;;;;;5051060;28;20103;-68
2021/01/03 12:49:59;;;;;;;373.98;337.48;;;;;;;;;;5052122;28;20075;-70
2021/01/03 12:52:25;;;;;;;339.73;304.38;;;;;;;;;;5045619;28;20485;-69
2021/01/03 12:54:51;;;;;;;333.40;298.65;;;;;;;;;;5045772;28;20051;-68
2021/01/03 12:57:17;;;;;;;367.23;330.88;;;;;;;;;;5050266;28;20595;-68
2021/01/03 12:59:43;;;;;;;335.75;300.40;;;;;;;;;;5050186;28;20036;-69
2021/01/03 13:02:09;;;;;;;329.10;294.25;;;;;;;;;;5050468;28;20037;-67
2021/01/03 13:04:35;;;;;;;1973.60;999.90;;;;;;;;;;5052127;28;20043;-68
2021/01/03 13:07:01;;;;;;;372.38;335.58;;;;;;;;;;5044177;28;20048;-66
2021/01/03 13:09:27;;;;;;;329.52;294.90;;;;;;;;;;5043316;28;20529;-67
2021/01/03 13:11:53;;;;;;;316.50;282.27;;;;;;;;;;5048991;28;20033;-69
2021/01/03 13:14:20;;;;;;;607.00;542.80;;;;;;;;;;5044672;28;20488;-69
2021/01/03 13:16:47;;;;;;;330.08;295.15;;;;;;;;;;5049620;28;20542;-70
2021/01/03 13:19:13;;;;;;;328.33;293.52;;;;;;;;;;5051273;28;20255;-69
2021/01/03 13:21:39;;;;;;;350.95;315.50;;;;;;;;;;5050572;28;20029;-68
2021/01/03 13:24:06;;;;;;;1313.10;999.90;;;;;;;;;;5045638;28;20591;-68
2021/01/03 13:26:33;;;;;;;374.33;337.50;;;;;;;;;;5048241;28;20029;-70
2021/01/03 13:28:59;;;;;;;1996.93;999.90;;;;;;;;;;5046882;28;20462;-68
2021/01/03 13:31:26;;;;;;;515.80;461.98;;;;;;;;;;5051977;28;20428;-69
2021/01/03 13:33:53;;;;;;;;;;;;;;;;;;5050266;28;20469;-69
2021/01/03 13:36:20;;;;;;;329.42;295.08;;;;;;;;;;5051596;28;19909;-68
2021/01/03 13:38:47;;;;;;;320.10;286.13;;;;;;;;;;5048084;28;20108;-69
2021/01/03 13:41:14;;;;;;;327.75;293.20;;;;;;;;;;5046808;28;20025;-68
2021/01/03 13:43:40;;;;;;;293.50;248.77;;;;;;;;;;5047195;28;20041;-69
2021/01/03 13:46:06;;;;;;;330.67;296.33;;;;;;;;;;5050908;28;20048;-68
2021/01/03 13:48:32;;;;;;;344.33;309.23;;;;;;;;;;5050866;28;20086;-68
2021/01/03 13:50:58;;;;;;;323.33;289.08;;;;;;;;;;5055264;28;20116;-69
2021/01/03 13:53:24;;;;;;;336.55;301.90;;;;;;;;;;5046431;28;20124;-69
2021/01/03 13:55:51;;;;;;;350.38;315.40;;;;;;;;;;5054662;28;20037;-68
2021/01/03 13:58:17;;;;;;;330.92;296.45;;;;;;;;;;5052617;28;20041;-68
2021/01/03 14:00:43;;;;;;;354.20;318.38;;;;;;;;;;5053938;28;20022;-69
2021/01/03 14:03:09;;;;;;;333.88;299.30;;;;;;;;;;5052711;28;20067;-67
2021/01/03 14:05:38;;;;;;;350.55;315.38;;;;;;;;;;5049375;28;20425;-68